sensor_id;sensor_type;location;lat;lon;timestamp;P1;durP1;ratioP1;P2;durP2;ratioP2
12314;SDS011;23886;46.614;14.276;2023-04-06T00:00:33;8.30;;;6.33;;
12314;SDS011;23886;46.614;14.276;2023-04-06T00:03:00;10.30;;;6.00;;
12314;SDS011;23886;46.614;14.276;2023-04-06T00:05:27;10.67;;;6.67;;
12314;SDS011;23886;46.614;14.276;2023-04-06T00:07:57;9.17;;;7.00;;
12314;SDS011;23886;46.614;14.276;2023-04-06T00:10:24;8.27;;;5.93;;
12314;SDS011;23886;46.614;14.276;2023-04-06T00:12:52;8.43;;;5.63;;
12314;SDS011;23886;46.614;14.276;2023-04-06T00:15:19;7.83;;;5.13;;
12314;SDS011;23886;46.614;14.276;2023-04-06T00:17:46;8.80;;;5.73;;
12314;SDS011;23886;46.614;14.276;2023-04-06T00:20:13;9.20;;;5.60;;
12314;SDS011;23886;46.614;14.276;2023-04-06T00:22:40;7.77;;;5.40;;
12314;SDS011;23886;46.614;14.276;2023-04-06T00:25:09;7.23;;;5.17;;
12314;SDS011;23886;46.614;14.276;2023-04-06T00:27:36;6.40;;;4.80;;
12314;SDS011;23886;46.614;14.276;2023-04-06T00:30:04;8.83;;;5.60;;
12314;SDS011;23886;46.614;14.276;2023-04-06T00:32:32;8.93;;;6.73;;
12314;SDS011;23886;46.614;14.276;2023-04-06T00:34:59;9.63;;;7.13;;
12314;SDS011;23886;46.614;14.276;2023-04-06T00:37:26;10.13;;;7.10;;
12314;SDS011;23886;46.614;14.276;2023-04-06T00:39:53;7.77;;;5.47;;
12314;SDS011;23886;46.614;14.276;2023-04-06T00:42:21;9.57;;;5.30;;
12314;SDS011;23886;46.614;14.276;2023-04-06T00:44:52;8.50;;;6.33;;
12314;SDS011;23886;46.614;14.276;2023-04-06T00:47:19;8.17;;;5.20;;
12314;SDS011;23886;46.614;14.276;2023-04-06T00:49:47;8.50;;;5.90;;
12314;SDS011;23886;46.614;14.276;2023-04-06T00:52:14;8.73;;;5.43;;
12314;SDS011;23886;46.614;14.276;2023-04-06T00:54:41;9.10;;;5.47;;
12314;SDS011;23886;46.614;14.276;2023-04-06T00:57:08;7.87;;;5.00;;
12314;SDS011;23886;46.614;14.276;2023-04-06T00:59:37;7.80;;;5.40;;
12314;SDS011;23886;46.614;14.276;2023-04-06T01:02:04;7.97;;;5.77;;
12314;SDS011;23886;46.614;14.276;2023-04-06T01:04:32;9.47;;;6.03;;
12314;SDS011;23886;46.614;14.276;2023-04-06T01:06:59;9.07;;;6.33;;
12314;SDS011;23886;46.614;14.276;2023-04-06T01:09:27;10.13;;;5.70;;
12314;SDS011;23886;46.614;14.276;2023-04-06T01:11:54;6.73;;;5.33;;
12314;SDS011;23886;46.614;14.276;2023-04-06T01:14:21;6.17;;;5.00;;
12314;SDS011;23886;46.614;14.276;2023-04-06T01:16:51;6.73;;;5.40;;
12314;SDS011;23886;46.614;14.276;2023-04-06T01:19:18;8.13;;;5.50;;
12314;SDS011;23886;46.614;14.276;2023-04-06T01:21:46;6.50;;;4.90;;
12314;SDS011;23886;46.614;14.276;2023-04-06T01:24:15;6.83;;;5.17;;
12314;SDS011;23886;46.614;14.276;2023-04-06T01:26:42;8.20;;;5.30;;
12314;SDS011;23886;46.614;14.276;2023-04-06T01:29:10;5.90;;;4.93;;
12314;SDS011;23886;46.614;14.276;2023-04-06T01:31:37;8.77;;;5.33;;
12314;SDS011;23886;46.614;14.276;2023-04-06T01:34:04;7.50;;;5.23;;
12314;SDS011;23886;46.614;14.276;2023-04-06T01:36:32;6.13;;;4.53;;
12314;SDS011;23886;46.614;14.276;2023-04-06T01:38:59;5.30;;;4.67;;
12314;SDS011;23886;46.614;14.276;2023-04-06T01:41:27;6.73;;;4.27;;
12314;SDS011;23886;46.614;14.276;2023-04-06T01:43:54;14.40;;;6.03;;
12314;SDS011;23886;46.614;14.276;2023-04-06T01:46:21;7.37;;;5.07;;
12314;SDS011;23886;46.614;14.276;2023-04-06T01:48:48;7.63;;;4.57;;
12314;SDS011;23886;46.614;14.276;2023-04-06T01:51:15;5.97;;;4.43;;
12314;SDS011;23886;46.614;14.276;2023-04-06T01:53:42;7.10;;;4.20;;
12314;SDS011;23886;46.614;14.276;2023-04-06T01:56:10;6.20;;;4.70;;
12314;SDS011;23886;46.614;14.276;2023-04-06T01:58:38;6.13;;;4.67;;
12314;SDS011;23886;46.614;14.276;2023-04-06T02:01:05;6.33;;;5.20;;
12314;SDS011;23886;46.614;14.276;2023-04-06T02:03:32;8.70;;;4.70;;
12314;SDS011;23886;46.614;14.276;2023-04-06T02:05:59;6.43;;;4.70;;
12314;SDS011;23886;46.614;14.276;2023-04-06T02:08:26;6.93;;;4.70;;
12314;SDS011;23886;46.614;14.276;2023-04-06T02:10:53;5.60;;;4.53;;
12314;SDS011;23886;46.614;14.276;2023-04-06T02:13:20;5.77;;;4.80;;
12314;SDS011;23886;46.614;14.276;2023-04-06T02:15:48;6.47;;;4.80;;
12314;SDS011;23886;46.614;14.276;2023-04-06T02:18:16;7.50;;;4.90;;
12314;SDS011;23886;46.614;14.276;2023-04-06T02:20:43;7.70;;;5.03;;
12314;SDS011;23886;46.614;14.276;2023-04-06T02:23:10;5.67;;;4.40;;
12314;SDS011;23886;46.614;14.276;2023-04-06T02:25:37;6.37;;;4.77;;
12314;SDS011;23886;46.614;14.276;2023-04-06T02:28:05;6.03;;;4.57;;
12314;SDS011;23886;46.614;14.276;2023-04-06T02:30:32;7.23;;;4.43;;
12314;SDS011;23886;46.614;14.276;2023-04-06T02:33:01;5.97;;;4.53;;
12314;SDS011;23886;46.614;14.276;2023-04-06T02:35:28;8.10;;;4.77;;
12314;SDS011;23886;46.614;14.276;2023-04-06T02:37:56;7.10;;;5.03;;
12314;SDS011;23886;46.614;14.276;2023-04-06T02:40:23;6.73;;;4.53;;
12314;SDS011;23886;46.614;14.276;2023-04-06T02:42:50;6.43;;;4.80;;
12314;SDS011;23886;46.614;14.276;2023-04-06T02:45:17;7.73;;;4.93;;
12314;SDS011;23886;46.614;14.276;2023-04-06T02:47:45;9.03;;;4.83;;
12314;SDS011;23886;46.614;14.276;2023-04-06T02:50:13;5.47;;;4.70;;
12314;SDS011;23886;46.614;14.276;2023-04-06T02:52:41;8.33;;;5.00;;
12314;SDS011;23886;46.614;14.276;2023-04-06T02:55:08;5.57;;;4.87;;
12314;SDS011;23886;46.614;14.276;2023-04-06T02:57:35;8.93;;;5.47;;
12314;SDS011;23886;46.614;14.276;2023-04-06T03:00:03;7.03;;;4.87;;
12314;SDS011;23886;46.614;14.276;2023-04-06T03:02:30;7.37;;;5.17;;
12314;SDS011;23886;46.614;14.276;2023-04-06T03:04:57;8.43;;;5.00;;
12314;SDS011;23886;46.614;14.276;2023-04-06T03:07:26;7.50;;;4.60;;
12314;SDS011;23886;46.614;14.276;2023-04-06T03:09:53;7.70;;;5.07;;
12314;SDS011;23886;46.614;14.276;2023-04-06T03:12:20;6.17;;;5.10;;
12314;SDS011;23886;46.614;14.276;2023-04-06T03:14:47;7.03;;;5.20;;
12314;SDS011;23886;46.614;14.276;2023-04-06T03:17:14;8.03;;;5.27;;
12314;SDS011;23886;46.614;14.276;2023-04-06T03:19:41;7.67;;;4.63;;
12314;SDS011;23886;46.614;14.276;2023-04-06T03:22:08;7.33;;;4.87;;
12314;SDS011;23886;46.614;14.276;2023-04-06T03:24:37;7.60;;;4.40;;
12314;SDS011;23886;46.614;14.276;2023-04-06T03:27:04;6.13;;;4.77;;
12314;SDS011;23886;46.614;14.276;2023-04-06T03:29:31;7.17;;;5.00;;
12314;SDS011;23886;46.614;14.276;2023-04-06T03:31:58;6.77;;;4.60;;
12314;SDS011;23886;46.614;14.276;2023-04-06T03:34:25;4.63;;;4.23;;
12314;SDS011;23886;46.614;14.276;2023-04-06T03:36:52;7.83;;;5.17;;
12314;SDS011;23886;46.614;14.276;2023-04-06T03:39:19;7.87;;;5.00;;
12314;SDS011;23886;46.614;14.276;2023-04-06T03:41:47;10.77;;;4.73;;
12314;SDS011;23886;46.614;14.276;2023-04-06T03:44:14;6.00;;;4.67;;
12314;SDS011;23886;46.614;14.276;2023-04-06T03:46:41;6.53;;;4.43;;
12314;SDS011;23886;46.614;14.276;2023-04-06T03:49:08;6.07;;;4.67;;
12314;SDS011;23886;46.614;14.276;2023-04-06T03:51:36;7.67;;;5.53;;
12314;SDS011;23886;46.614;14.276;2023-04-06T03:54:03;10.13;;;5.07;;
12314;SDS011;23886;46.614;14.276;2023-04-06T03:56:30;7.57;;;5.00;;
12314;SDS011;23886;46.614;14.276;2023-04-06T03:58:58;6.23;;;4.77;;
12314;SDS011;23886;46.614;14.276;2023-04-06T04:01:26;8.93;;;5.03;;
12314;SDS011;23886;46.614;14.276;2023-04-06T04:03:53;7.43;;;5.33;;
12314;SDS011;23886;46.614;14.276;2023-04-06T04:06:20;7.57;;;5.90;;
12314;SDS011;23886;46.614;14.276;2023-04-06T04:08:48;8.00;;;5.50;;
12314;SDS011;23886;46.614;14.276;2023-04-06T04:11:15;6.70;;;4.80;;
12314;SDS011;23886;46.614;14.276;2023-04-06T04:13:42;7.23;;;4.97;;
12314;SDS011;23886;46.614;14.276;2023-04-06T04:16:10;7.00;;;4.70;;
12314;SDS011;23886;46.614;14.276;2023-04-06T04:18:37;6.10;;;4.97;;
12314;SDS011;23886;46.614;14.276;2023-04-06T04:21:04;9.10;;;5.27;;
12314;SDS011;23886;46.614;14.276;2023-04-06T04:23:31;7.37;;;5.37;;
12314;SDS011;23886;46.614;14.276;2023-04-06T04:25:58;9.03;;;6.60;;
12314;SDS011;23886;46.614;14.276;2023-04-06T04:28:25;8.73;;;6.10;;
12314;SDS011;23886;46.614;14.276;2023-04-06T04:30:52;7.03;;;5.30;;
12314;SDS011;23886;46.614;14.276;2023-04-06T04:33:21;8.83;;;5.77;;
12314;SDS011;23886;46.614;14.276;2023-04-06T04:35:49;11.97;;;10.07;;
12314;SDS011;23886;46.614;14.276;2023-04-06T04:38:16;10.50;;;6.03;;
12314;SDS011;23886;46.614;14.276;2023-04-06T04:40:43;8.77;;;5.17;;
12314;SDS011;23886;46.614;14.276;2023-04-06T04:43:10;7.23;;;5.60;;
12314;SDS011;23886;46.614;14.276;2023-04-06T04:45:37;6.60;;;4.97;;
12314;SDS011;23886;46.614;14.276;2023-04-06T04:48:04;8.73;;;5.83;;
12314;SDS011;23886;46.614;14.276;2023-04-06T04:50:34;7.90;;;5.90;;
12314;SDS011;23886;46.614;14.276;2023-04-06T04:53:01;7.07;;;5.30;;
12314;SDS011;23886;46.614;14.276;2023-04-06T04:55:30;6.80;;;5.37;;
12314;SDS011;23886;46.614;14.276;2023-04-06T04:57:57;6.67;;;5.30;;
12314;SDS011;23886;46.614;14.276;2023-04-06T05:00:24;11.40;;;6.03;;
12314;SDS011;23886;46.614;14.276;2023-04-06T05:02:51;8.00;;;5.23;;
12314;SDS011;23886;46.614;14.276;2023-04-06T05:05:18;5.80;;;5.00;;
12314;SDS011;23886;46.614;14.276;2023-04-06T05:07:47;18.23;;;12.13;;
12314;SDS011;23886;46.614;14.276;2023-04-06T05:10:14;10.87;;;8.40;;
12314;SDS011;23886;46.614;14.276;2023-04-06T05:12:41;9.30;;;6.40;;
12314;SDS011;23886;46.614;14.276;2023-04-06T05:15:09;13.83;;;8.57;;
12314;SDS011;23886;46.614;14.276;2023-04-06T05:17:36;8.13;;;6.13;;
12314;SDS011;23886;46.614;14.276;2023-04-06T05:20:04;9.43;;;6.47;;
12314;SDS011;23886;46.614;14.276;2023-04-06T05:22:32;10.57;;;7.70;;
12314;SDS011;23886;46.614;14.276;2023-04-06T05:25:00;7.63;;;6.50;;
12314;SDS011;23886;46.614;14.276;2023-04-06T05:27:27;8.80;;;6.17;;
12314;SDS011;23886;46.614;14.276;2023-04-06T05:29:55;40.53;;;29.37;;
12314;SDS011;23886;46.614;14.276;2023-04-06T05:32:22;14.63;;;11.90;;
12314;SDS011;23886;46.614;14.276;2023-04-06T05:34:49;16.50;;;10.43;;
12314;SDS011;23886;46.614;14.276;2023-04-06T05:37:17;14.93;;;8.40;;
12314;SDS011;23886;46.614;14.276;2023-04-06T05:39:44;16.83;;;9.93;;
12314;SDS011;23886;46.614;14.276;2023-04-06T05:42:12;13.30;;;9.63;;
12314;SDS011;23886;46.614;14.276;2023-04-06T05:44:40;11.60;;;8.60;;
12314;SDS011;23886;46.614;14.276;2023-04-06T05:47:07;11.77;;;9.43;;
12314;SDS011;23886;46.614;14.276;2023-04-06T05:49:34;15.30;;;10.07;;
12314;SDS011;23886;46.614;14.276;2023-04-06T05:52:01;23.77;;;16.10;;
12314;SDS011;23886;46.614;14.276;2023-04-06T05:54:29;34.37;;;22.57;;
12314;SDS011;23886;46.614;14.276;2023-04-06T05:56:56;35.03;;;22.20;;
12314;SDS011;23886;46.614;14.276;2023-04-06T05:59:24;27.40;;;18.30;;
12314;SDS011;23886;46.614;14.276;2023-04-06T06:01:51;21.10;;;12.43;;
12314;SDS011;23886;46.614;14.276;2023-04-06T06:04:18;12.20;;;6.67;;
12314;SDS011;23886;46.614;14.276;2023-04-06T06:06:45;9.30;;;6.30;;
12314;SDS011;23886;46.614;14.276;2023-04-06T06:09:12;8.47;;;6.37;;
12314;SDS011;23886;46.614;14.276;2023-04-06T06:11:39;8.50;;;5.10;;
12314;SDS011;23886;46.614;14.276;2023-04-06T06:14:07;7.57;;;5.57;;
12314;SDS011;23886;46.614;14.276;2023-04-06T06:16:35;6.40;;;5.10;;
12314;SDS011;23886;46.614;14.276;2023-04-06T06:19:02;7.60;;;5.60;;
12314;SDS011;23886;46.614;14.276;2023-04-06T06:21:29;6.17;;;4.63;;
12314;SDS011;23886;46.614;14.276;2023-04-06T06:23:56;6.80;;;4.53;;
12314;SDS011;23886;46.614;14.276;2023-04-06T06:26:24;6.47;;;4.70;;
12314;SDS011;23886;46.614;14.276;2023-04-06T06:28:51;6.20;;;4.30;;
12314;SDS011;23886;46.614;14.276;2023-04-06T06:31:18;6.43;;;4.40;;
12314;SDS011;23886;46.614;14.276;2023-04-06T06:33:47;7.73;;;4.90;;
12314;SDS011;23886;46.614;14.276;2023-04-06T06:36:15;10.83;;;6.90;;
12314;SDS011;23886;46.614;14.276;2023-04-06T06:38:43;5.23;;;4.67;;
12314;SDS011;23886;46.614;14.276;2023-04-06T06:41:10;8.13;;;6.20;;
12314;SDS011;23886;46.614;14.276;2023-04-06T06:43:37;6.03;;;5.10;;
12314;SDS011;23886;46.614;14.276;2023-04-06T06:46:04;7.53;;;5.00;;
12314;SDS011;23886;46.614;14.276;2023-04-06T06:48:31;4.60;;;4.10;;
12314;SDS011;23886;46.614;14.276;2023-04-06T06:51:00;6.13;;;4.60;;
12314;SDS011;23886;46.614;14.276;2023-04-06T06:53:27;6.77;;;4.60;;
12314;SDS011;23886;46.614;14.276;2023-04-06T06:55:54;6.13;;;4.70;;
12314;SDS011;23886;46.614;14.276;2023-04-06T06:58:21;7.30;;;4.90;;
12314;SDS011;23886;46.614;14.276;2023-04-06T07:00:48;6.63;;;4.93;;
12314;SDS011;23886;46.614;14.276;2023-04-06T07:03:15;5.53;;;4.40;;
12314;SDS011;23886;46.614;14.276;2023-04-06T07:05:45;6.90;;;4.80;;
12314;SDS011;23886;46.614;14.276;2023-04-06T07:08:16;10.73;;;5.50;;
12314;SDS011;23886;46.614;14.276;2023-04-06T07:10:43;6.97;;;4.10;;
12314;SDS011;23886;46.614;14.276;2023-04-06T07:13:10;7.40;;;4.97;;
12314;SDS011;23886;46.614;14.276;2023-04-06T07:15:39;6.13;;;4.73;;
12314;SDS011;23886;46.614;14.276;2023-04-06T07:18:06;7.87;;;5.10;;
12314;SDS011;23886;46.614;14.276;2023-04-06T07:20:33;7.53;;;4.53;;
12314;SDS011;23886;46.614;14.276;2023-04-06T07:23:00;5.57;;;5.00;;
12314;SDS011;23886;46.614;14.276;2023-04-06T07:25:29;7.83;;;4.60;;
12314;SDS011;23886;46.614;14.276;2023-04-06T07:27:56;5.50;;;4.37;;
12314;SDS011;23886;46.614;14.276;2023-04-06T07:30:23;5.87;;;4.90;;
12314;SDS011;23886;46.614;14.276;2023-04-06T07:32:51;7.17;;;4.80;;
12314;SDS011;23886;46.614;14.276;2023-04-06T07:35:20;6.97;;;5.10;;
12314;SDS011;23886;46.614;14.276;2023-04-06T07:37:47;7.77;;;5.10;;
12314;SDS011;23886;46.614;14.276;2023-04-06T07:40:15;5.53;;;4.83;;
12314;SDS011;23886;46.614;14.276;2023-04-06T07:42:43;7.47;;;4.70;;
12314;SDS011;23886;46.614;14.276;2023-04-06T07:45:10;6.93;;;4.63;;
12314;SDS011;23886;46.614;14.276;2023-04-06T07:47:38;5.90;;;4.77;;
12314;SDS011;23886;46.614;14.276;2023-04-06T07:50:05;5.83;;;4.90;;
12314;SDS011;23886;46.614;14.276;2023-04-06T07:52:33;6.10;;;4.50;;
12314;SDS011;23886;46.614;14.276;2023-04-06T07:55:00;8.50;;;5.00;;
12314;SDS011;23886;46.614;14.276;2023-04-06T07:57:27;5.40;;;4.50;;
12314;SDS011;23886;46.614;14.276;2023-04-06T07:59:55;6.53;;;5.10;;
12314;SDS011;23886;46.614;14.276;2023-04-06T08:02:22;8.07;;;4.80;;
12314;SDS011;23886;46.614;14.276;2023-04-06T08:04:49;6.03;;;5.00;;
12314;SDS011;23886;46.614;14.276;2023-04-06T08:07:16;6.40;;;4.80;;
12314;SDS011;23886;46.614;14.276;2023-04-06T08:09:43;5.57;;;4.47;;
12314;SDS011;23886;46.614;14.276;2023-04-06T08:12:10;5.27;;;4.10;;
12314;SDS011;23886;46.614;14.276;2023-04-06T08:14:37;5.87;;;4.43;;
12314;SDS011;23886;46.614;14.276;2023-04-06T08:17:06;4.83;;;4.33;;
12314;SDS011;23886;46.614;14.276;2023-04-06T08:19:33;6.67;;;4.70;;
12314;SDS011;23886;46.614;14.276;2023-04-06T08:22:00;6.67;;;4.90;;
12314;SDS011;23886;46.614;14.276;2023-04-06T08:24:27;6.80;;;4.33;;
12314;SDS011;23886;46.614;14.276;2023-04-06T08:26:55;8.07;;;4.93;;
12314;SDS011;23886;46.614;14.276;2023-04-06T08:29:22;7.10;;;4.60;;
12314;SDS011;23886;46.614;14.276;2023-04-06T08:31:49;5.27;;;4.53;;
12314;SDS011;23886;46.614;14.276;2023-04-06T08:34:18;6.07;;;4.70;;
12314;SDS011;23886;46.614;14.276;2023-04-06T08:36:45;7.47;;;4.30;;
12314;SDS011;23886;46.614;14.276;2023-04-06T08:39:12;6.33;;;5.00;;
12314;SDS011;23886;46.614;14.276;2023-04-06T08:41:41;6.20;;;4.70;;
12314;SDS011;23886;46.614;14.276;2023-04-06T08:44:09;5.93;;;4.30;;
12314;SDS011;23886;46.614;14.276;2023-04-06T08:46:37;6.20;;;4.57;;
12314;SDS011;23886;46.614;14.276;2023-04-06T08:49:04;5.50;;;4.70;;
12314;SDS011;23886;46.614;14.276;2023-04-06T08:51:34;4.97;;;4.30;;
12314;SDS011;23886;46.614;14.276;2023-04-06T08:54:03;5.60;;;4.50;;
12314;SDS011;23886;46.614;14.276;2023-04-06T08:56:30;5.67;;;4.33;;
12314;SDS011;23886;46.614;14.276;2023-04-06T08:58:57;4.53;;;4.07;;
12314;SDS011;23886;46.614;14.276;2023-04-06T09:01:25;6.63;;;5.00;;
12314;SDS011;23886;46.614;14.276;2023-04-06T09:03:55;6.67;;;5.00;;
12314;SDS011;23886;46.614;14.276;2023-04-06T09:06:24;7.03;;;4.87;;
12314;SDS011;23886;46.614;14.276;2023-04-06T09:08:54;7.40;;;4.63;;
12314;SDS011;23886;46.614;14.276;2023-04-06T09:11:21;6.67;;;4.80;;
12314;SDS011;23886;46.614;14.276;2023-04-06T09:13:49;5.83;;;4.60;;
12314;SDS011;23886;46.614;14.276;2023-04-06T09:16:17;6.63;;;4.97;;
12314;SDS011;23886;46.614;14.276;2023-04-06T09:18:45;6.30;;;4.73;;
12314;SDS011;23886;46.614;14.276;2023-04-06T09:21:12;5.03;;;4.33;;
12314;SDS011;23886;46.614;14.276;2023-04-06T09:23:42;5.97;;;4.77;;
12314;SDS011;23886;46.614;14.276;2023-04-06T09:26:11;8.47;;;4.80;;
12314;SDS011;23886;46.614;14.276;2023-04-06T09:28:43;7.33;;;4.97;;
12314;SDS011;23886;46.614;14.276;2023-04-06T09:31:11;6.27;;;5.50;;
12314;SDS011;23886;46.614;14.276;2023-04-06T09:33:40;6.70;;;5.33;;
12314;SDS011;23886;46.614;14.276;2023-04-06T09:36:08;5.60;;;5.00;;
12314;SDS011;23886;46.614;14.276;2023-04-06T09:38:51;5.70;;;5.07;;
12314;SDS011;23886;46.614;14.276;2023-04-06T09:41:24;5.80;;;5.20;;
12314;SDS011;23886;46.614;14.276;2023-04-06T09:43:52;6.10;;;4.63;;
12314;SDS011;23886;46.614;14.276;2023-04-06T09:46:27;6.27;;;5.10;;
12314;SDS011;23886;46.614;14.276;2023-04-06T09:48:58;5.70;;;5.10;;
12314;SDS011;23886;46.614;14.276;2023-04-06T09:51:26;5.50;;;5.00;;
12314;SDS011;23886;46.614;14.276;2023-04-06T09:53:56;7.00;;;4.70;;
12314;SDS011;23886;46.614;14.276;2023-04-06T09:56:28;5.77;;;4.80;;
12314;SDS011;23886;46.614;14.276;2023-04-06T09:59:01;11.07;;;5.93;;
12314;SDS011;23886;46.614;14.276;2023-04-06T10:01:32;6.27;;;5.40;;
12314;SDS011;23886;46.614;14.276;2023-04-06T10:04:04;5.70;;;5.10;;
12314;SDS011;23886;46.614;14.276;2023-04-06T10:06:39;6.13;;;4.70;;
12314;SDS011;23886;46.614;14.276;2023-04-06T10:09:07;6.93;;;5.33;;
12314;SDS011;23886;46.614;14.276;2023-04-06T10:11:36;6.53;;;5.10;;
12314;SDS011;23886;46.614;14.276;2023-04-06T10:14:03;6.33;;;5.30;;
12314;SDS011;23886;46.614;14.276;2023-04-06T10:16:30;7.07;;;5.30;;
12314;SDS011;23886;46.614;14.276;2023-04-06T10:18:59;5.63;;;5.13;;
12314;SDS011;23886;46.614;14.276;2023-04-06T10:21:35;5.63;;;5.13;;
12314;SDS011;23886;46.614;14.276;2023-04-06T10:24:06;6.83;;;4.67;;
12314;SDS011;23886;46.614;14.276;2023-04-06T10:26:38;5.67;;;5.17;;
12314;SDS011;23886;46.614;14.276;2023-04-06T10:29:05;5.83;;;4.90;;
12314;SDS011;23886;46.614;14.276;2023-04-06T10:31:32;6.73;;;5.30;;
12314;SDS011;23886;46.614;14.276;2023-04-06T10:34:05;5.40;;;4.90;;
12314;SDS011;23886;46.614;14.276;2023-04-06T10:36:33;5.20;;;4.70;;
12314;SDS011;23886;46.614;14.276;2023-04-06T10:39:01;5.80;;;5.20;;
12314;SDS011;23886;46.614;14.276;2023-04-06T10:41:33;5.67;;;4.90;;
12314;SDS011;23886;46.614;14.276;2023-04-06T10:44:02;5.30;;;4.80;;
12314;SDS011;23886;46.614;14.276;2023-04-06T10:46:30;6.23;;;5.00;;
12314;SDS011;23886;46.614;14.276;2023-04-06T10:49:09;5.23;;;4.70;;
12314;SDS011;23886;46.614;14.276;2023-04-06T10:51:37;5.50;;;4.87;;
12314;SDS011;23886;46.614;14.276;2023-04-06T10:54:04;6.03;;;4.97;;
12314;SDS011;23886;46.614;14.276;2023-04-06T10:56:32;5.43;;;4.93;;
12314;SDS011;23886;46.614;14.276;2023-04-06T10:59:05;6.93;;;6.20;;
12314;SDS011;23886;46.614;14.276;2023-04-06T11:01:33;6.57;;;5.97;;
12314;SDS011;23886;46.614;14.276;2023-04-06T11:04:00;5.53;;;5.10;;
12314;SDS011;23886;46.614;14.276;2023-04-06T11:06:28;5.70;;;5.10;;
12314;SDS011;23886;46.614;14.276;2023-04-06T11:08:57;5.63;;;5.13;;
12314;SDS011;23886;46.614;14.276;2023-04-06T11:11:25;5.33;;;4.83;;
12314;SDS011;23886;46.614;14.276;2023-04-06T11:13:53;7.10;;;5.20;;
12314;SDS011;23886;46.614;14.276;2023-04-06T11:16:23;8.70;;;5.23;;
12314;SDS011;23886;46.614;14.276;2023-04-06T11:18:52;5.20;;;4.53;;
12314;SDS011;23886;46.614;14.276;2023-04-06T11:21:31;5.20;;;4.70;;
12314;SDS011;23886;46.614;14.276;2023-04-06T11:24:06;6.40;;;4.40;;
12314;SDS011;23886;46.614;14.276;2023-04-06T11:26:38;6.77;;;5.07;;
12314;SDS011;23886;46.614;14.276;2023-04-06T11:29:06;5.30;;;4.80;;
12314;SDS011;23886;46.614;14.276;2023-04-06T11:31:38;6.33;;;4.90;;
12314;SDS011;23886;46.614;14.276;2023-04-06T11:34:10;6.87;;;5.03;;
12314;SDS011;23886;46.614;14.276;2023-04-06T11:36:39;6.50;;;4.60;;
12314;SDS011;23886;46.614;14.276;2023-04-06T11:39:08;5.00;;;4.50;;
12314;SDS011;23886;46.614;14.276;2023-04-06T11:41:36;5.40;;;4.87;;
12314;SDS011;23886;46.614;14.276;2023-04-06T11:44:03;4.57;;;4.17;;
12314;SDS011;23886;46.614;14.276;2023-04-06T11:46:31;5.87;;;4.00;;
12314;SDS011;23886;46.614;14.276;2023-04-06T11:49:00;5.97;;;5.40;;
12314;SDS011;23886;46.614;14.276;2023-04-06T11:51:28;5.87;;;4.43;;
12314;SDS011;23886;46.614;14.276;2023-04-06T11:53:55;6.17;;;4.50;;
12314;SDS011;23886;46.614;14.276;2023-04-06T11:56:26;5.50;;;4.40;;
12314;SDS011;23886;46.614;14.276;2023-04-06T11:58:56;4.73;;;4.30;;
12314;SDS011;23886;46.614;14.276;2023-04-06T12:01:25;5.97;;;4.43;;
12314;SDS011;23886;46.614;14.276;2023-04-06T12:03:52;5.70;;;4.30;;
12314;SDS011;23886;46.614;14.276;2023-04-06T12:06:21;4.37;;;3.90;;
12314;SDS011;23886;46.614;14.276;2023-04-06T12:08:49;7.67;;;5.73;;
12314;SDS011;23886;46.614;14.276;2023-04-06T12:11:16;5.73;;;4.97;;
12314;SDS011;23886;46.614;14.276;2023-04-06T12:13:44;5.90;;;4.23;;
12314;SDS011;23886;46.614;14.276;2023-04-06T12:16:12;4.37;;;3.97;;
12314;SDS011;23886;46.614;14.276;2023-04-06T12:18:39;4.33;;;3.93;;
12314;SDS011;23886;46.614;14.276;2023-04-06T12:21:06;4.43;;;4.03;;
12314;SDS011;23886;46.614;14.276;2023-04-06T12:23:35;5.47;;;4.03;;
12314;SDS011;23886;46.614;14.276;2023-04-06T12:26:02;4.40;;;3.80;;
12314;SDS011;23886;46.614;14.276;2023-04-06T12:28:30;5.40;;;4.57;;
12314;SDS011;23886;46.614;14.276;2023-04-06T12:30:57;4.27;;;3.87;;
12314;SDS011;23886;46.614;14.276;2023-04-06T12:33:24;4.07;;;3.67;;
12314;SDS011;23886;46.614;14.276;2023-04-06T12:35:51;4.37;;;3.70;;
12314;SDS011;23886;46.614;14.276;2023-04-06T12:38:18;4.40;;;4.00;;
12314;SDS011;23886;46.614;14.276;2023-04-06T12:40:47;4.10;;;3.70;;
12314;SDS011;23886;46.614;14.276;2023-04-06T12:43:14;4.53;;;3.47;;
12314;SDS011;23886;46.614;14.276;2023-04-06T12:45:41;5.97;;;3.80;;
12314;SDS011;23886;46.614;14.276;2023-04-06T12:48:08;6.27;;;3.80;;
12314;SDS011;23886;46.614;14.276;2023-04-06T12:50:35;6.63;;;4.07;;
12314;SDS011;23886;46.614;14.276;2023-04-06T12:53:02;4.37;;;3.83;;
12314;SDS011;23886;46.614;14.276;2023-04-06T12:55:29;4.20;;;3.80;;
12314;SDS011;23886;46.614;14.276;2023-04-06T12:58:00;4.63;;;3.60;;
12314;SDS011;23886;46.614;14.276;2023-04-06T13:00:28;3.87;;;3.50;;
12314;SDS011;23886;46.614;14.276;2023-04-06T13:02:56;4.40;;;4.00;;
12314;SDS011;23886;46.614;14.276;2023-04-06T13:05:23;4.23;;;3.83;;
12314;SDS011;23886;46.614;14.276;2023-04-06T13:07:50;6.33;;;4.00;;
12314;SDS011;23886;46.614;14.276;2023-04-06T13:10:17;4.87;;;4.17;;
12314;SDS011;23886;46.614;14.276;2023-04-06T13:12:44;4.13;;;3.80;;
12314;SDS011;23886;46.614;14.276;2023-04-06T13:15:12;4.20;;;3.80;;
12314;SDS011;23886;46.614;14.276;2023-04-06T13:17:40;4.07;;;3.53;;
12314;SDS011;23886;46.614;14.276;2023-04-06T13:20:07;4.43;;;4.00;;
12314;SDS011;23886;46.614;14.276;2023-04-06T13:22:35;6.70;;;5.67;;
12314;SDS011;23886;46.614;14.276;2023-04-06T13:25:02;5.17;;;3.93;;
12314;SDS011;23886;46.614;14.276;2023-04-06T13:27:30;3.90;;;3.50;;
12314;SDS011;23886;46.614;14.276;2023-04-06T13:29:58;3.53;;;2.90;;
12314;SDS011;23886;46.614;14.276;2023-04-06T13:32:27;4.87;;;3.80;;
12314;SDS011;23886;46.614;14.276;2023-04-06T13:34:55;3.90;;;3.50;;
12314;SDS011;23886;46.614;14.276;2023-04-06T13:37:22;3.53;;;3.17;;
12314;SDS011;23886;46.614;14.276;2023-04-06T13:39:49;3.50;;;3.00;;
12314;SDS011;23886;46.614;14.276;2023-04-06T13:42:16;3.37;;;3.00;;
12314;SDS011;23886;46.614;14.276;2023-04-06T13:44:43;3.90;;;3.40;;
12314;SDS011;23886;46.614;14.276;2023-04-06T13:47:12;4.03;;;3.20;;
12314;SDS011;23886;46.614;14.276;2023-04-06T13:49:41;5.50;;;3.20;;
12314;SDS011;23886;46.614;14.276;2023-04-06T13:52:08;4.87;;;3.50;;
12314;SDS011;23886;46.614;14.276;2023-04-06T13:54:36;4.20;;;3.20;;
12314;SDS011;23886;46.614;14.276;2023-04-06T13:57:03;3.27;;;2.90;;
12314;SDS011;23886;46.614;14.276;2023-04-06T13:59:32;3.20;;;2.90;;
12314;SDS011;23886;46.614;14.276;2023-04-06T14:01:59;5.17;;;3.20;;
12314;SDS011;23886;46.614;14.276;2023-04-06T14:04:26;3.20;;;2.90;;
12314;SDS011;23886;46.614;14.276;2023-04-06T14:06:55;3.30;;;3.00;;
12314;SDS011;23886;46.614;14.276;2023-04-06T14:09:22;3.00;;;2.70;;
12314;SDS011;23886;46.614;14.276;2023-04-06T14:11:49;3.73;;;3.03;;
12314;SDS011;23886;46.614;14.276;2023-04-06T14:14:16;3.13;;;2.83;;
12314;SDS011;23886;46.614;14.276;2023-04-06T14:16:44;3.87;;;2.90;;
12314;SDS011;23886;46.614;14.276;2023-04-06T14:19:11;2.97;;;2.70;;
12314;SDS011;23886;46.614;14.276;2023-04-06T14:21:39;3.23;;;2.60;;
12314;SDS011;23886;46.614;14.276;2023-04-06T14:24:08;3.57;;;2.40;;
12314;SDS011;23886;46.614;14.276;2023-04-06T14:26:35;3.23;;;2.53;;
12314;SDS011;23886;46.614;14.276;2023-04-06T14:29:03;2.93;;;2.63;;
12314;SDS011;23886;46.614;14.276;2023-04-06T14:31:31;2.73;;;2.43;;
12314;SDS011;23886;46.614;14.276;2023-04-06T14:34:00;3.00;;;2.70;;
12314;SDS011;23886;46.614;14.276;2023-04-06T14:36:28;3.20;;;2.90;;